Time;durP1;ratioP1;P1;durP2;ratioP2;P2;SDS_P1;SDS_P2;PMS_P1;PMS_P2;Temp;Humidity;BMP_temperature;BMP_pressure;BME280_temperature;BME280_humidity;BME280_pressure;Samples;Min_cycle;Max_cycle;Signal;HPM_P1;HPM_P2
2021/07/26 00:00:58;;;;;;;;;;;;;;;16.86;83.00;96069.53;5056312;28;20345;-77
2021/07/26 00:03:24;;;;;;;;;;;;;;;16.84;83.16;96067.16;5056086;28;20337;-77
2021/07/26 00:05:54;;;;;;;;;;;;;;;16.82;83.32;96074.56;5038661;28;20009;-77
2021/07/26 00:08:20;;;;;;;;;;;;;;;16.80;83.53;96068.75;5037065;28;19977;-77
2021/07/26 00:10:46;;;;;;;;;;;;;;;16.81;83.50;96074.84;5038224;28;20004;-77
2021/07/26 00:13:12;;;;;;;;;;;;;;;16.78;84.17;96070.06;5037339;28;19977;-77
2021/07/26 00:15:38;;;;;;;;;;;;;;;16.76;84.15;96070.31;5056139;28;20418;-77
2021/07/26 00:18:04;;;;;;;;;;;;;;;16.73;84.47;96070.84;5038374;28;20007;-77
2021/07/26 00:20:29;;;;;;;;;;;;;;;16.72;84.31;96079.84;5055663;28;20344;-77
2021/07/26 00:22:55;;;;;;;;;;;;;;;16.72;84.76;96071.13;5055657;28;20095;-77
2021/07/26 00:25:22;;;;;;;;;;;;;;;16.71;84.38;96074.81;5037083;28;21008;-77
2021/07/26 00:27:48;;;;;;;;;;;;;;;16.70;84.88;96074.03;5056237;28;19973;-77
2021/07/26 00:30:14;;;;;;;;;;;;;;;16.70;84.60;96076.66;5036829;28;19977;-77
2021/07/26 00:32:40;;;;;;;;;;;;;;;16.71;84.09;96078.25;5056001;28;20416;-77
2021/07/26 00:35:06;;;;;;;;;;;;;;;16.71;84.36;96075.59;5021278;28;19961;-77
2021/07/26 00:37:32;;;;;;;;;;;;;;;16.70;84.28;96065.28;5055423;28;19977;-77
2021/07/26 00:39:59;;;;;;;;;;;;;;;16.70;84.27;96075.88;5055312;28;19969;-77
2021/07/26 00:42:25;;;;;;;;;;;;;;;16.68;84.13;96078.78;5055609;28;19969;-77
2021/07/26 00:44:51;;;;;;;;;;;;;;;16.66;83.85;96082.78;5020538;28;20317;-77
2021/07/26 00:47:17;;;;;;;;;;;;;;;16.64;83.78;96083.03;5037583;28;19969;-77
2021/07/26 00:49:43;;;;;;;;;;;;;;;16.62;84.12;96078.00;5055362;28;20031;-77
2021/07/26 00:52:09;;;;;;;;;;;;;;;16.60;83.97;96082.75;5055257;28;20405;-77
2021/07/26 00:54:36;;;;;;;;;;;;;;;16.59;83.59;96088.34;5055010;28;20059;-77
2021/07/26 00:57:06;;;;;;;;;;;;;;;16.57;83.84;96096.53;5055362;28;19984;-77
2021/07/26 00:59:33;;;;;;;;;;;;;;;16.55;84.41;96096.00;5055046;28;20313;-77
2021/07/26 01:01:59;;;;;;;;;;;;;;;16.54;84.89;96099.69;5055114;28;19965;-77
2021/07/26 01:04:26;;;;;;;;;;;;;;;16.50;85.56;96098.63;5055312;28;19961;-77
2021/07/26 01:06:51;;;;;;;;;;;;;;;16.49;85.58;96097.06;5037232;28;19965;-77
2021/07/26 01:09:17;;;;;;;;;;;;;;;16.49;85.84;96093.63;5036883;28;20341;-77
2021/07/26 01:11:44;;;;;;;;;;;;;;;16.48;85.60;96092.81;5055335;28;20065;-77
2021/07/26 01:14:10;;;;;;;;;;;;;;;16.48;85.14;96084.06;5020010;28;19965;-77
2021/07/26 01:16:36;;;;;;;;;;;;;;;16.49;85.24;96083.03;5054794;28;19969;-77
2021/07/26 01:19:02;;;;;;;;;;;;;;;16.49;85.43;96090.97;5036376;28;20000;-77
2021/07/26 01:21:29;;;;;;;;;;;;;;;16.48;86.62;96099.97;5036059;28;20008;-77
2021/07/26 01:23:55;;;;;;;;;;;;;;;16.46;85.70;96096.78;5039089;28;19993;-77
2021/07/26 01:26:22;;;;;;;;;;;;;;;16.43;85.92;96096.25;5036044;28;19984;-77
2021/07/26 01:28:49;;;;;;;;;;;;;;;16.42;86.84;96102.59;5054454;28;20336;-77
2021/07/26 01:31:15;;;;;;;;;;;;;;;16.41;86.72;96103.66;5019397;28;19962;-77
2021/07/26 01:33:42;;;;;;;;;;;;;;;16.40;86.80;96098.66;5054436;28;19969;-77
2021/07/26 01:36:08;;;;;;;;;;;;;;;16.38;86.37;96093.59;5054215;28;19960;-77
2021/07/26 01:38:34;;;;;;;;;;;;;;;16.38;86.24;96090.97;5019990;28;19965;-77
2021/07/26 01:41:02;;;;;;;;;;;;;;;16.38;86.23;96090.19;5054144;28;20051;-77
2021/07/26 01:43:37;;;;;;;;;;;;;;;16.37;86.02;96094.66;5054785;28;19965;-77
2021/07/26 01:46:02;;;;;;;;;;;;;;;16.38;86.40;96093.59;5035706;28;19969;-77
2021/07/26 01:48:43;;;;;;;;;;;;;;;16.36;86.38;96101.00;5054171;28;19973;-77
2021/07/26 01:51:42;;;;;;;;;;;;;;;16.33;86.42;96096.22;5026239;28;20461;-77
2021/07/26 01:54:08;;;;;;;;;;;;;;;16.30;86.56;96096.78;5009410;28;20434;-77
2021/07/26 01:56:34;;;;;;;;;;;;;;;16.28;86.85;96098.88;5054040;28;20019;-77
2021/07/26 01:59:00;;;;;;;;;;;;;;;16.26;86.78;96095.69;5002919;28;20480;-77
2021/07/26 02:01:26;;;;;;;;;;;;;;;16.26;87.16;96101.00;5054096;28;19975;-77
2021/07/26 02:03:51;;;;;;;;;;;;;;;16.23;86.75;96101.50;5054139;28;20476;-77
2021/07/26 02:06:17;;;;;;;;;;;;;;;16.23;86.63;96098.84;5036438;28;20000;-77
2021/07/26 02:08:43;;;;;;;;;;;;;;;16.22;87.10;96107.88;5019472;28;19965;-77
2021/07/26 02:11:09;;;;;;;;;;;;;;;16.20;87.14;96102.81;5036192;28;20019;-77
2021/07/26 02:13:35;;;;;;;;;;;;;;;16.20;87.01;96105.47;5035620;28;20001;-77
2021/07/26 02:16:01;;;;;;;;;;;;;;;16.18;87.16;96107.59;5035362;28;19973;-77
2021/07/26 02:18:27;;;;;;;;;;;;;;;16.15;87.15;96108.13;5053797;28;19996;-77
2021/07/26 02:20:53;;;;;;;;;;;;;;;16.14;87.30;96105.72;5054064;28;19969;-77
2021/07/26 02:23:18;;;;;;;;;;;;;;;16.13;87.59;96120.81;5053720;28;20538;-77
2021/07/26 02:25:44;;;;;;;;;;;;;;;16.07;87.73;96105.19;5053667;28;20034;-77
2021/07/26 02:28:10;;;;;;;;;;;;;;;16.06;87.80;96106.25;5053448;28;19996;-77
2021/07/26 02:30:37;;;;;;;;;;;;;;;16.05;87.97;96105.44;5053518;28;19981;-77
2021/07/26 02:33:02;;;;;;;;;;;;;;;16.02;88.10;96111.25;5035799;28;20472;-77
2021/07/26 02:35:28;;;;;;;;;;;;;;;16.00;88.48;96108.88;5053790;28;19969;-77
2021/07/26 02:37:56;;;;;;;;;;;;;;;16.01;88.77;96112.31;5034914;28;19969;-77
2021/07/26 02:40:22;;;;;;;;;;;;;;;16.00;88.98;96118.66;5053562;28;19965;-77
2021/07/26 02:42:48;;;;;;;;;;;;;;;16.00;89.13;96123.94;5053228;28;20475;-77
2021/07/26 02:45:14;;;;;;;;;;;;;;;16.00;89.33;96110.72;5053498;28;19973;-77
2021/07/26 02:47:40;;;;;;;;;;;;;;;16.01;89.18;96126.31;5035090;28;19979;-77
2021/07/26 02:50:06;;;;;;;;;;;;;;;16.02;89.47;96116.53;5035645;28;19981;-77
2021/07/26 02:52:34;;;;;;;;;;;;;;;16.05;89.48;96117.88;5053799;28;19976;-77
2021/07/26 02:55:00;;;;;;;;;;;;;;;16.06;89.19;96124.75;5053066;28;19969;-77
2021/07/26 02:57:25;;;;;;;;;;;;;;;16.06;89.32;96122.09;5034585;28;19980;-77
2021/07/26 02:59:51;;;;;;;;;;;;;;;16.06;89.51;96125.53;5019364;28;19969;-77
2021/07/26 03:02:17;;;;;;;;;;;;;;;16.06;89.43;96122.09;5034883;28;20401;-77
2021/07/26 03:04:43;;;;;;;;;;;;;;;16.05;89.42;96120.53;5035778;28;19972;-75
2021/07/26 03:07:09;;;;;;;;;;;;;;;16.05;89.24;96108.09;5053659;28;20044;-77
2021/07/26 03:09:35;;;;;;;;;;;;;;;16.07;88.92;96113.13;5053054;28;20023;-77
2021/07/26 03:12:01;;;;;;;;;;;;;;;16.07;88.87;96111.28;5002065;28;19969;-78
2021/07/26 03:14:27;;;;;;;;;;;;;;;16.09;88.84;96122.38;5035655;28;19988;-79
2021/07/26 03:16:53;;;;;;;;;;;;;;;16.09;88.88;96132.19;5034588;28;19965;-78
2021/07/26 03:19:19;;;;;;;;;;;;;;;16.08;88.60;96131.38;5035336;28;19967;-78
2021/07/26 03:22:05;;;;;;;;;;;;;;;16.09;88.69;96127.69;5053569;28;20067;-76
2021/07/26 03:24:31;;;;;;;;;;;;;;;16.10;88.95;96133.75;5064209;28;19997;-77
2021/07/26 03:26:57;;;;;;;;;;;;;;;16.09;88.78;96140.13;5072968;28;19973;-76
2021/07/26 03:29:23;;;;;;;;;;;;;;;16.09;89.47;96132.19;5071945;28;19981;-78
2021/07/26 03:31:48;;;;;;;;;;;;;;;16.07;89.38;96126.34;5073308;28;19959;-77
2021/07/26 03:34:14;;;;;;;;;;;;;;;16.06;88.91;96128.19;5054778;28;20452;-77
2021/07/26 03:36:40;;;;;;;;;;;;;;;16.06;89.06;96130.03;5073041;28;19969;-77
2021/07/26 03:39:06;;;;;;;;;;;;;;;16.06;89.44;96130.03;5054674;28;20011;-78
2021/07/26 03:41:32;;;;;;;;;;;;;;;16.06;89.04;96135.34;5054918;28;20452;-77
2021/07/26 03:43:58;;;;;;;;;;;;;;;16.05;89.69;96134.53;5073133;28;19969;-77
2021/07/26 03:46:24;;;;;;;;;;;;;;;16.03;89.78;96132.16;5055149;28;19969;-77
2021/07/26 03:48:49;;;;;;;;;;;;;;;16.03;89.53;96129.50;5075706;28;20059;-78
2021/07/26 03:51:15;;;;;;;;;;;;;;;16.03;89.75;96126.06;5074680;28;20523;-76
2021/07/26 03:53:41;;;;;;;;;;;;;;;16.04;89.91;96122.34;5074893;28;20070;-78
2021/07/26 03:56:07;;;;;;;;;;;;;;;16.05;89.89;96125.81;5076574;28;19979;-78
2021/07/26 03:58:33;;;;;;;;;;;;;;;16.05;89.79;96129.25;5076197;28;19969;-78
2021/07/26 04:00:59;;;;;;;;;;;;;;;16.12;90.69;96123.72;5076403;28;20004;-80
2021/07/26 04:03:32;;;;;;;;;;;;;;;16.23;90.42;96120.84;5057924;28;20414;-78
2021/07/26 04:06:12;;;;;;;;;;;;;;;16.34;89.15;96119.00;5074182;28;19964;-78
2021/07/26 04:08:39;;;;;;;;;;;;;;;16.35;88.11;96114.50;5043546;28;19968;-78
2021/07/26 04:11:12;;;;;;;;;;;;;;;16.33;87.62;96114.75;5074983;28;19981;-78
2021/07/26 04:13:39;;;;;;;;;;;;;;;16.30;87.48;96119.78;5076029;28;20409;-78
2021/07/26 04:16:06;;;;;;;;;;;;;;;16.26;87.35;96119.53;5076028;28;19969;-78
2021/07/26 04:18:31;;;;;;;;;;;;;;;16.21;87.96;96117.66;5073672;28;19966;-78
2021/07/26 04:20:57;;;;;;;;;;;;;;;16.15;87.95;96104.69;5074507;28;19999;-78
2021/07/26 04:23:24;;;;;;;;;;;;;;;16.11;88.28;96099.13;5040859;28;20010;-78
2021/07/26 04:25:51;;;;;;;;;;;;;;;16.09;88.00;96117.09;5074586;28;19971;-78
2021/07/26 04:28:26;;;;;;;;;;;;;;;16.07;88.07;96113.91;5073999;28;19972;-78
2021/07/26 04:30:52;;;;;;;;;;;;;;;16.06;88.13;96114.97;5057698;28;20352;-78
2021/07/26 04:33:18;;;;;;;;;;;;;;;16.02;87.96;96109.41;5057177;28;19969;-78
2021/07/26 04:35:44;;;;;;;;;;;;;;;16.03;88.12;96111.00;5040440;28;19964;-78
2021/07/26 04:38:10;;;;;;;;;;;;;;;16.02;88.10;96114.72;5075035;28;20000;-78
2021/07/26 04:40:36;;;;;;;;;;;;;;;16.05;87.78;96117.88;5075699;28;19968;-78
2021/07/26 04:43:02;;;;;;;;;;;;;;;16.06;87.92;96116.81;5074562;28;20347;-76
2021/07/26 04:45:28;;;;;;;;;;;;;;;16.07;87.83;96121.06;5074147;28;19968;-77
2021/07/26 04:47:54;;;;;;;;;;;;;;;16.07;88.19;96121.84;5073833;28;19973;-77
2021/07/26 04:50:20;;;;;;;;;;;;;;;16.14;88.76;96126.88;5057389;28;20071;-77
2021/07/26 04:52:45;;;;;;;;;;;;;;;16.18;87.77;96139.34;5075644;28;20008;-77
2021/07/26 04:55:12;;;;;;;;;;;;;;;16.20;87.28;96133.78;5057325;28;19996;-77
2021/07/26 04:57:37;;;;;;;;;;;;;;;16.21;86.84;96138.00;5056365;28;19972;-76
2021/07/26 05:00:04;;;;;;;;;;;;;;;16.20;87.02;96134.56;5075061;28;20001;-77
2021/07/26 05:02:30;;;;;;;;;;;;;;;16.19;87.18;96127.72;5073881;28;19969;-77
2021/07/26 05:04:56;;;;;;;;;;;;;;;16.20;87.82;96129.28;5073273;28;20331;-77
2021/07/26 05:07:22;;;;;;;;;;;;;;;16.28;87.88;96133.28;5073273;28;19977;-77
2021/07/26 05:09:47;;;;;;;;;;;;;;;16.54;87.66;96134.09;5075064;28;19983;-77
2021/07/26 05:12:14;;;;;;;;;;;;;;;16.93;86.44;96136.28;5074725;28;20058;-77
2021/07/26 05:14:41;;;;;;;;;;;;;;;17.32;85.11;96130.38;5056832;28;19976;-77
2021/07/26 05:17:07;;;;;;;;;;;;;;;17.70;83.80;96130.03;5073431;28;19969;-77
2021/07/26 05:19:33;;;;;;;;;;;;;;;17.83;82.38;96138.22;5057144;28;20425;-79
2021/07/26 05:22:01;;;;;;;;;;;;;;;17.86;81.59;96134.25;5057031;28;19965;-77
2021/07/26 05:24:27;;;;;;;;;;;;;;;17.82;81.32;96151.72;5055962;28;19995;-78
2021/07/26 05:27:00;;;;;;;;;;;;;;;17.78;80.94;96151.47;5073249;28;19969;-77
2021/07/26 05:29:26;;;;;;;;;;;;;;;17.71;81.29;96150.19;5074266;28;19972;-77
2021/07/26 05:31:52;;;;;;;;;;;;;;;17.91;81.58;96155.47;5073545;28;19980;-78
2021/07/26 05:34:18;;;;;;;;;;;;;;;18.11;79.04;96146.59;5056333;28;19973;-75
2021/07/26 05:36:44;;;;;;;;;;;;;;;18.32;78.96;96151.81;5074769;28;20013;-76
2021/07/26 05:39:09;;;;;;;;;;;;;;;18.57;76.47;96153.50;5074760;28;19995;-76
2021/07/26 05:41:35;;;;;;;;;;;;;;;18.79;76.06;96145.94;5074167;28;19969;-77
2021/07/26 05:44:01;;;;;;;;;;;;;;;19.10;76.74;96152.88;5072309;28;19980;-77
2021/07/26 05:46:28;;;;;;;;;;;;;;;19.46;75.71;96142.69;5074222;28;19965;-79
2021/07/26 05:48:54;;;;;;;;;;;;;;;19.70;74.42;96150.72;5039261;28;19980;-77
2021/07/26 05:51:20;;;;;;;;;;;;;;;19.91;72.49;96147.78;5073023;28;19987;-77
2021/07/26 05:53:46;;;;;;;;;;;;;;;20.06;72.54;96136.97;5074281;28;20415;-77
2021/07/26 05:56:12;;;;;;;;;;;;;;;20.07;70.95;96144.69;5072766;28;19980;-78
2021/07/26 05:58:46;;;;;;;;;;;;;;;20.19;71.52;96143.47;5056040;28;19968;-78
2021/07/26 06:03:56;;;;;;;;;;;;;;;20.58;70.79;96137.06;5073445;28;19988;-78
2021/07/26 06:06:22;;;;;;;;;;;;;;;20.60;70.13;96137.56;5073806;28;20063;-77
2021/07/26 06:08:48;;;;;;;;;;;;;;;20.59;71.92;96154.66;5072191;28;20004;-77
2021/07/26 06:11:14;;;;;;;;;;;;;;;20.50;69.78;96143.84;5071226;28;19987;-76
2021/07/26 06:13:40;;;;;;;;;;;;;;;20.69;69.84;96146.50;5072270;28;20038;-76
2021/07/26 06:16:09;;;;;;;;;;;;;;;20.92;69.47;96147.47;5073774;28;19960;-76
2021/07/26 06:18:35;;;;;;;;;;;;;;;21.09;67.47;96139.72;5072058;28;19964;-76
2021/07/26 06:21:05;;;;;;;;;;;;;;;21.35;69.20;96149.16;5073680;28;19961;-77
2021/07/26 06:23:31;;;;;;;;;;;;;;;21.62;67.20;96135.09;5072280;28;20491;-77
2021/07/26 06:25:57;;;;;;;;;;;;;;;21.78;66.40;96133.72;5072194;28;19964;-77
2021/07/26 06:28:22;;;;;;;;;;;;;;;21.89;66.99;96136.97;5072201;28;20011;-78
2021/07/26 06:30:48;;;;;;;;;;;;;;;22.16;67.75;96141.47;5072338;28;19981;-78
2021/07/26 06:33:14;;;;;;;;;;;;;;;22.46;66.80;96131.25;5072154;28;20008;-78
2021/07/26 06:35:40;;;;;;;;;;;;;;;22.48;62.47;96115.69;5073552;28;20335;-78
2021/07/26 06:38:08;;;;;;;;;;;;;;;22.43;62.05;96113.16;5072487;28;19965;-78
2021/07/26 06:40:34;;;;;;;;;;;;;;;22.46;66.08;96145.38;5072179;28;19964;-78
2021/07/26 06:43:00;;;;;;;;;;;;;;;22.57;62.87;96135.25;5072078;28;20007;-78
2021/07/26 06:45:26;;;;;;;;;;;;;;;22.57;65.12;96140.59;5072443;28;19965;-78
2021/07/26 06:47:52;;;;;;;;;;;;;;;22.59;64.32;96151.78;5073858;28;20399;-78
2021/07/26 06:50:19;;;;;;;;;;;;;;;22.74;64.09;96142.66;5072371;28;19988;-78
2021/07/26 06:52:45;;;;;;;;;;;;;;;23.09;64.30;96145.56;5072121;28;19972;-78
2021/07/26 06:55:11;;;;;;;;;;;;;;;23.37;63.05;96138.19;5071808;28;19984;-79
2021/07/26 06:57:37;;;;;;;;;;;;;;;23.52;62.70;96145.03;5073487;28;19968;-78
2021/07/26 07:00:04;;;;;;;;;;;;;;;23.78;61.61;96142.47;5055383;28;19975;-79
2021/07/26 07:02:29;;;;;;;;;;;;;;;23.97;60.85;96136.06;5072642;28;20448;-78
2021/07/26 07:04:55;;;;;;;;;;;;;;;24.08;62.09;96148.03;5055276;28;19967;-78
2021/07/26 07:07:21;;;;;;;;;;;;;;;24.04;61.84;96149.78;5072211;28;20051;-79
2021/07/26 07:09:47;;;;;;;;;;;;;;;23.79;60.90;96149.41;5071529;28;20072;-78
2021/07/26 07:12:17;;;;;;;;;;;;;;;23.59;61.13;96152.59;5073484;28;20393;-78
2021/07/26 07:14:44;;;;;;;;;;;;;;;23.59;62.36;96163.31;5073330;28;19969;-78
2021/07/26 07:17:10;;;;;;;;;;;;;;;23.71;61.22;96150.13;5072131;28;20417;-78
2021/07/26 07:19:43;;;;;;;;;;;;;;;23.89;61.37;96151.00;5072145;28;19969;-78
2021/07/26 07:22:10;;;;;;;;;;;;;;;23.94;60.61;96140.16;5072068;28;19961;-78
2021/07/26 07:24:36;;;;;;;;;;;;;;;23.83;59.95;96136.16;5075099;28;20449;-78
2021/07/26 07:27:02;;;;;;;;;;;;;;;23.88;59.89;96152.09;5058727;28;19973;-78
2021/07/26 07:29:28;;;;;;;;;;;;;;;23.95;61.76;96163.16;5076070;28;19969;-78
2021/07/26 07:31:54;;;;;;;;;;;;;;;23.85;60.64;96169.56;5058405;28;20387;-78
2021/07/26 07:34:20;;;;;;;;;;;;;;;23.60;61.18;96168.34;5041895;28;19969;-78
2021/07/26 07:36:47;;;;;;;;;;;;;;;23.58;60.98;96173.22;5075405;28;19968;-78
2021/07/26 07:39:13;;;;;;;;;;;;;;;23.46;61.22;96176.47;5059468;28;19973;-78
2021/07/26 07:41:39;;;;;;;;;;;;;;;23.42;61.99;96190.78;5074456;28;19972;-79
2021/07/26 07:44:05;;;;;;;;;;;;;;;23.48;61.61;96192.22;5075452;28;19965;-78
2021/07/26 07:46:31;;;;;;;;;;;;;;;23.29;61.37;96198.56;5075231;28;20068;-78
2021/07/26 07:48:57;;;;;;;;;;;;;;;23.04;63.07;96212.56;5058473;28;20433;-78
2021/07/26 07:51:23;;;;;;;;;;;;;;;22.77;63.68;96210.75;5057714;28;20031;-78
2021/07/26 07:53:51;;;;;;;;;;;;;;;22.48;63.75;96207.34;5075155;28;19969;-78
2021/07/26 07:56:17;;;;;;;;;;;;;;;22.24;65.02;96215.59;5075170;28;19976;-78
2021/07/26 07:58:43;;;;;;;;;;;;;;;21.98;65.06;96204.59;5076312;28;19976;-78
2021/07/26 08:01:09;;;;;;;;;;;;;;;21.82;66.49;96206.78;5076181;28;19961;-78
2021/07/26 08:03:35;;;;;;;;;;;;;;;21.78;66.51;96207.66;5074786;28;19972;-79
2021/07/26 08:06:02;;;;;;;;;;;;;;;21.76;67.54;96205.28;5058096;28;20041;-78
2021/07/26 08:08:28;;;;;;;;;;;;;;;21.82;66.86;96212.13;5057734;28;19961;-78
2021/07/26 08:10:54;;;;;;;;;;;;;;;21.75;66.95;96205.56;5076268;28;19996;-78
2021/07/26 08:13:20;;;;;;;;;;;;;;;21.72;67.48;96214.19;5074075;28;19969;-78
2021/07/26 08:15:48;;;;;;;;;;;;;;;21.71;67.17;96212.59;5057630;28;19961;-78
2021/07/26 08:18:13;;;;;;;;;;;;;;;21.65;68.00;96209.25;5076052;28;19984;-78
2021/07/26 08:20:39;;;;;;;;;;;;;;;21.62;67.79;96207.13;5076233;28;20413;-78
2021/07/26 08:23:05;;;;;;;;;;;;;;;21.73;68.37;96205.06;5040540;28;19993;-78
2021/07/26 08:25:31;;;;;;;;;;;;;;;22.01;67.43;96198.66;5074799;28;20344;-78
2021/07/26 08:27:57;;;;;;;;;;;;;;;22.35;66.85;96202.81;5075691;28;20059;-78
2021/07/26 08:30:25;;;;;;;;;;;;;;;22.67;65.73;96195.72;5075950;28;20444;-78
2021/07/26 08:32:51;;;;;;;;;;;;;;;22.96;62.50;96184.63;5075581;28;20416;-78
2021/07/26 08:35:18;;;;;;;;;;;;;;;23.17;61.54;96174.25;5040147;28;19965;-78
2021/07/26 08:37:44;;;;;;;;;;;;;;;23.39;63.46;96194.06;5075989;28;19972;-78
2021/07/26 08:40:10;;;;;;;;;;;;;;;23.42;60.60;96180.84;5056944;28;19964;-78
2021/07/26 08:42:36;;;;;;;;;;;;;;;23.44;60.91;96178.66;5057379;28;19979;-77
2021/07/26 08:45:03;;;;;;;;;;;;;;;23.43;61.74;96184.31;5057341;28;20438;-79
2021/07/26 08:47:29;;;;;;;;;;;;;;;23.68;62.78;96194.34;5074191;28;19968;-78
2021/07/26 08:49:58;;;;;;;;;;;;;;;23.90;60.99;96187.41;5073349;28;19960;-78
2021/07/26 08:52:25;;;;;;;;;;;;;;;24.02;58.45;96162.69;5075472;28;19968;-78
2021/07/26 08:54:52;;;;;;;;;;;;;;;24.17;60.43;96180.22;5075076;28;19988;-78
2021/07/26 08:57:19;;;;;;;;;;;;;;;24.21;57.16;96155.19;5056655;28;19956;-78
2021/07/26 08:59:46;;;;;;;;;;;;;;;24.36;58.34;96166.53;5074031;28;19971;-78
2021/07/26 09:02:12;;;;;;;;;;;;;;;24.48;58.10;96162.16;5074932;28;20048;-78
2021/07/26 09:04:38;;;;;;;;;;;;;;;24.59;53.05;96124.31;5073856;28;19976;-79
2021/07/26 09:07:07;;;;;;;;;;;;;;;24.63;56.74;96150.22;5074876;28;19967;-79
2021/07/26 09:09:43;;;;;;;;;;;;;;;24.75;56.49;96151.44;5073647;28;19968;-79
2021/07/26 09:12:09;;;;;;;;;;;;;;;24.92;54.00;96124.59;5073514;28;20003;-79
2021/07/26 09:14:37;;;;;;;;;;;;;;;25.01;56.34;96140.69;5073131;28;19969;-78
2021/07/26 09:17:03;;;;;;;;;;;;;;;24.98;57.56;96154.75;5073506;28;19971;-79
2021/07/26 09:19:49;;;;;;;;;;;;;;;25.02;55.51;96136.91;5074827;28;19975;-79
2021/07/26 09:22:25;;;;;;;;;;;;;;;25.17;55.61;96136.41;5072033;28;20009;-79
2021/07/26 09:25:09;;;;;;;;;;;;;;;25.17;50.38;96090.78;5054785;28;20063;-79
2021/07/26 09:27:35;;;;;;;;;;;;;;;25.36;54.00;96127.22;5054824;28;20407;-79
2021/07/26 09:30:14;;;;;;;;;;;;;;;25.34;52.80;96124.06;5019558;28;20056;-79
2021/07/26 09:32:40;;;;;;;;;;;;;;;25.50;55.23;96136.66;5054364;28;20441;-79
2021/07/26 09:35:07;;;;;;;;;;;;;;;25.49;51.85;96102.06;5019481;28;19965;-79
2021/07/26 09:37:33;;;;;;;;;;;;;;;25.36;51.66;96105.75;5036653;28;20356;-79
2021/07/26 09:40:19;;;;;;;;;;;;;;;25.25;52.32;96111.47;5019527;28;20011;-79
2021/07/26 09:42:45;;;;;;;;;;;;;;;25.21;51.36;96099.00;5054446;28;19988;-79
2021/07/26 09:45:24;;;;;;;;;;;;;;;25.20;51.13;96095.56;5019080;28;19969;-79
2021/07/26 09:48:10;;;;;;;;;;;;;;;25.30;52.51;96102.44;5054038;28;19961;-79
2021/07/26 09:50:40;;;;;;;;;;;;;;;25.45;51.97;96095.75;5019204;28;19977;-79
2021/07/26 09:53:07;;;;;;;;;;;;;;;25.38;51.25;96090.13;5035782;28;19969;-79
2021/07/26 09:55:33;;;;;;;;;;;;;;;25.10;50.72;96093.19;5035489;28;19969;-79
2021/07/26 09:58:00;;;;;;;;;;;;;;;24.90;50.16;96083.91;5054063;28;20344;-79
2021/07/26 10:00:26;;;;;;;;;;;;;;;24.82;52.81;96114.19;5054009;28;20457;-79
2021/07/26 10:02:53;;;;;;;;;;;;;;;24.88;53.83;96121.78;5036079;28;19971;-79
2021/07/26 10:05:20;;;;;;;;;;;;;;;25.07;51.53;96096.47;5035720;28;19961;-79
2021/07/26 10:07:46;;;;;;;;;;;;;;;25.31;52.00;96094.06;5019595;28;19965;-79
2021/07/26 10:10:13;;;;;;;;;;;;;;;25.48;49.75;96077.13;5054260;28;19965;-79
2021/07/26 10:12:41;;;;;;;;;;;;;;;25.67;51.45;96092.03;5019662;28;19992;-79
2021/07/26 10:15:07;;;;;;;;;;;;;;;25.82;47.02;96048.50;5053794;28;20340;-79
2021/07/26 10:17:34;;;;;;;;;;;;;;;25.90;50.20;96077.22;5053662;28;19976;-79
2021/07/26 10:20:00;;;;;;;;;;;;;;;26.05;49.66;96078.56;5035022;28;20352;-79
2021/07/26 10:22:26;;;;;;;;;;;;;;;26.07;47.02;96054.06;5035375;28;19999;-78
2021/07/26 10:25:25;;;;;;;;;;;;;;;25.89;47.86;96061.44;5053405;28;19996;-79
2021/07/26 10:27:55;;;;;;;;;;;;;;;25.88;49.52;96075.97;4997241;28;20060;-79
2021/07/26 10:30:39;;;;;;;;;;;;;;;26.02;44.62;96019.34;5018849;28;19965;-79
2021/07/26 10:33:05;;;;;;;;;;;;;;;26.09;46.28;96052.59;5053832;28;19965;-78
2021/07/26 10:35:36;;;;;;;;;;;;;;;25.94;48.32;96069.31;5035751;28;19965;-79
2021/07/26 10:38:03;;;;;;;;;;;;;;;25.86;47.16;96078.19;5034542;28;19961;-78
2021/07/26 10:40:36;;;;;;;;;;;;;;;25.99;45.79;96044.16;5035551;28;19968;-78
2021/07/26 10:43:02;;;;;;;;;;;;;;;26.12;47.36;96064.59;5053506;28;19972;-79
2021/07/26 10:45:31;;;;;;;;;;;;;;;26.18;49.05;96074.03;5035789;28;20355;-79
2021/07/26 10:48:16;;;;;;;;;;;;;;;26.09;45.95;96049.91;5018577;28;19973;-79
2021/07/26 10:50:44;;;;;;;;;;;;;;;25.89;47.85;96067.63;5035281;28;19980;-78
2021/07/26 10:53:10;;;;;;;;;;;;;;;25.80;48.58;96068.75;5053207;28;19976;-79
2021/07/26 10:55:55;;;;;;;;;;;;;;;25.82;49.64;96071.88;5035584;28;20492;-79
2021/07/26 10:58:39;;;;;;;;;;;;;;;25.81;50.13;96075.69;5057046;28;19965;-79
2021/07/26 11:01:26;;;;;;;;;;;;;;;25.76;49.66;96065.13;5057203;28;19965;-79
2021/07/26 11:03:52;;;;;;;;;;;;;;;25.50;46.84;96049.94;5012310;28;19965;-79
2021/07/26 11:06:33;;;;;;;;;;;;;;;25.22;48.89;96079.09;5057243;28;20333;-79
2021/07/26 11:09:18;;;;;;;;;;;;;;;25.08;50.38;96081.97;5039526;28;19980;-79
2021/07/26 11:11:44;;;;;;;;;;;;;;;25.03;52.27;96088.31;5057185;28;20337;-78
2021/07/26 11:14:12;;;;;;;;;;;;;;;25.04;49.96;96067.63;5056900;28;20428;-79
2021/07/26 11:16:58;;;;;;;;;;;;;;;24.98;47.16;96047.44;5038408;28;19965;-79
2021/07/26 11:19:58;;;;;;;;;;;;;;;24.87;48.63;96061.19;5038234;28;20413;-78
2021/07/26 11:22:27;;;;;;;;;;;;;;;24.75;52.49;96079.84;5056938;28;19969;-79
2021/07/26 11:24:56;;;;;;;;;;;;;;;24.73;53.95;96094.66;5074635;28;19988;-79
2021/07/26 11:27:29;;;;;;;;;;;;;;;24.72;54.50;96096.56;5076759;28;19965;-78
2021/07/26 11:29:55;;;;;;;;;;;;;;;24.70;54.21;96090.72;5074835;28;19972;-78
2021/07/26 11:32:22;;;;;;;;;;;;;;;24.66;54.09;96087.09;5075373;28;19989;-78
2021/07/26 11:34:58;;;;;;;;;;;;;;;24.62;54.24;96081.59;5076808;28;19963;-79
2021/07/26 11:37:30;;;;;;;;;;;;;;;24.59;54.81;96081.41;5062568;28;19964;-78
2021/07/26 11:39:58;;;;;;;;;;;;;;;24.54;55.58;96103.03;5041480;28;19987;-79
2021/07/26 11:42:25;;;;;;;;;;;;;;;24.49;56.28;96110.13;5074375;28;19968;-78
2021/07/26 11:44:52;;;;;;;;;;;;;;;24.45;56.38;96111.06;5074093;28;19960;-78
2021/07/26 11:47:28;;;;;;;;;;;;;;;24.41;56.99;96102.84;5077005;28;19968;-78
2021/07/26 11:49:54;;;;;;;;;;;;;;;24.36;57.48;96111.06;5061633;28;19964;-78
2021/07/26 11:52:20;;;;;;;;;;;;;;;24.31;57.85;96120.03;5074628;28;19992;-78
2021/07/26 11:54:46;;;;;;;;;;;;;;;24.26;58.37;96122.09;5076366;28;20063;-78
2021/07/26 11:57:14;;;;;;;;;;;;;;;24.20;58.87;96129.47;5075978;28;20031;-78
2021/07/26 11:59:46;;;;;;;;;;;;;;;24.16;59.17;96127.75;5075257;28;20409;-78
2021/07/26 12:02:12;;;;;;;;;;;;;;;24.06;56.73;96102.81;5076297;28;19957;-78
2021/07/26 12:04:38;;;;;;;;;;;;;;;23.90;56.93;96096.34;5076528;28;20014;-77
2021/07/26 12:07:05;;;;;;;;;;;;;;;23.81;57.73;96100.88;5074967;28;19968;-77
2021/07/26 12:09:32;;;;;;;;;;;;;;;23.75;58.57;96110.13;5074870;28;19965;-79
2021/07/26 12:12:08;;;;;;;;;;;;;;;23.73;59.10;96109.63;5076714;28;19976;-78
2021/07/26 12:14:34;;;;;;;;;;;;;;;23.74;60.13;96119.25;5076152;28;19968;-78
2021/07/26 12:17:02;;;;;;;;;;;;;;;23.75;60.10;96110.13;5075882;28;19968;-78
2021/07/26 12:19:28;;;;;;;;;;;;;;;23.76;60.38;96114.38;5073831;28;19961;-78
2021/07/26 12:21:55;;;;;;;;;;;;;;;23.68;58.93;96107.91;5040552;28;19969;-78
2021/07/26 12:24:40;;;;;;;;;;;;;;;23.60;57.42;96093.41;5074573;28;19999;-78
2021/07/26 12:27:06;;;;;;;;;;;;;;;23.49;58.11;96111.59;5061395;28;19965;-78
2021/07/26 12:29:32;;;;;;;;;;;;;;;23.43;60.46;96125.44;5040971;28;19995;-78
2021/07/26 12:32:03;;;;;;;;;;;;;;;23.37;59.31;96132.03;5075613;28;19983;-78
2021/07/26 12:34:29;;;;;;;;;;;;;;;23.30;59.19;96135.91;5073765;28;19961;-78
2021/07/26 12:36:57;;;;;;;;;;;;;;;23.21;57.93;96129.75;5075244;28;19969;-78
2021/07/26 12:39:39;;;;;;;;;;;;;;;23.13;58.95;96133.16;5075438;28;19968;-79
2021/07/26 12:42:23;;;;;;;;;;;;;;;23.07;59.78;96137.06;5075578;28;19960;-78
2021/07/26 12:44:49;;;;;;;;;;;;;;;23.00;59.65;96125.97;5060748;28;19960;-78
2021/07/26 12:47:24;;;;;;;;;;;;;;;22.92;59.91;96121.38;5075217;28;19975;-78
2021/07/26 12:49:54;;;;;;;;;;;;;;;22.80;60.00;96121.91;5074122;28;19968;-78
2021/07/26 12:52:19;;;;;;;;;;;;;;;22.73;61.29;96138.38;5075138;28;19981;-81
2021/07/26 12:54:45;;;;;;;;;;;;;;;22.67;63.93;96139.59;5074294;28;19979;-81